sensor_id;sensor_type;location;lat;lon;timestamp;pressure;altitude;pressure_sealevel;temperature;humidity
67013;BME280;53926;47.406;19.188;2022-12-10T00:01:34;98756.13;;;5.43;100.00
67013;BME280;53926;47.406;19.188;2022-12-10T00:04:04;98762.09;;;5.44;100.00
67013;BME280;53926;47.406;19.188;2022-12-10T00:06:33;98754.66;;;5.54;100.00
67013;BME280;53926;47.406;19.188;2022-12-10T00:09:00;98755.88;;;5.51;100.00
67013;BME280;53926;47.406;19.188;2022-12-10T00:11:27;98769.72;;;5.57;100.00
67013;BME280;53926;47.406;19.188;2022-12-10T00:13:54;98763.50;;;5.65;100.00
67013;BME280;53926;47.406;19.188;2022-12-10T00:16:23;98765.50;;;5.63;100.00
67013;BME280;53926;47.406;19.188;2022-12-10T00:18:51;98769.72;;;5.57;100.00
67013;BME280;53926;47.406;19.188;2022-12-10T00:21:20;98771.88;;;5.60;100.00
67013;BME280;53926;47.406;19.188;2022-12-10T00:23:47;98766.63;;;5.48;100.00
67013;BME280;53926;47.406;19.188;2022-12-10T00:26:17;98768.53;;;5.60;100.00
67013;BME280;53926;47.406;19.188;2022-12-10T00:28:44;98771.53;;;5.57;100.00
67013;BME280;53926;47.406;19.188;2022-12-10T00:31:14;98768.09;;;5.63;100.00
67013;BME280;53926;47.406;19.188;2022-12-10T00:33:42;98771.78;;;5.73;100.00
67013;BME280;53926;47.406;19.188;2022-12-10T00:36:18;98778.09;;;5.78;100.00
67013;BME280;53926;47.406;19.188;2022-12-10T00:38:45;98776.38;;;5.71;100.00
67013;BME280;53926;47.406;19.188;2022-12-10T00:41:13;98779.19;;;5.63;100.00
67013;BME280;53926;47.406;19.188;2022-12-10T00:43:40;98785.38;;;5.62;100.00
67013;BME280;53926;47.406;19.188;2022-12-10T00:46:08;98773.78;;;5.71;100.00
67013;BME280;53926;47.406;19.188;2022-12-10T00:48:35;98767.59;;;5.72;100.00
67013;BME280;53926;47.406;19.188;2022-12-10T00:51:10;98775.31;;;5.79;100.00
67013;BME280;53926;47.406;19.188;2022-12-10T00:53:38;98780.78;;;5.64;100.00
67013;BME280;53926;47.406;19.188;2022-12-10T00:56:08;98791.47;;;5.68;100.00
67013;BME280;53926;47.406;19.188;2022-12-10T00:58:37;98802.84;;;5.67;100.00
67013;BME280;53926;47.406;19.188;2022-12-10T01:03:34;98803.34;;;5.50;100.00
67013;BME280;53926;47.406;19.188;2022-12-10T01:08:37;98812.16;;;5.43;100.00
67013;BME280;53926;47.406;19.188;2022-12-10T01:11:04;98808.56;;;5.44;100.00
67013;BME280;53926;47.406;19.188;2022-12-10T01:13:31;98809.56;;;5.43;100.00
67013;BME280;53926;47.406;19.188;2022-12-10T01:16:00;98808.19;;;5.40;100.00
67013;BME280;53926;47.406;19.188;2022-12-10T01:18:28;98805.81;;;5.38;100.00
67013;BME280;53926;47.406;19.188;2022-12-10T01:20:54;98820.69;;;5.43;100.00
67013;BME280;53926;47.406;19.188;2022-12-10T01:23:21;98825.22;;;5.48;100.00
67013;BME280;53926;47.406;19.188;2022-12-10T01:25:47;98823.44;;;5.48;100.00
67013;BME280;53926;47.406;19.188;2022-12-10T01:28:14;98830.38;;;5.48;100.00
67013;BME280;53926;47.406;19.188;2022-12-10T01:30:41;98828.00;;;5.46;100.00
67013;BME280;53926;47.406;19.188;2022-12-10T01:33:07;98819.91;;;5.43;100.00
67013;BME280;53926;47.406;19.188;2022-12-10T01:35:37;98829.84;;;5.39;100.00
67013;BME280;53926;47.406;19.188;2022-12-10T01:38:03;98829.03;;;5.45;100.00
67013;BME280;53926;47.406;19.188;2022-12-10T01:40:30;98826.22;;;5.47;100.00
67013;BME280;53926;47.406;19.188;2022-12-10T01:42:57;98825.22;;;5.48;100.00
67013;BME280;53926;47.406;19.188;2022-12-10T01:45:26;98824.50;;;5.34;100.00
67013;BME280;53926;47.406;19.188;2022-12-10T01:47:53;98826.94;;;5.29;100.00
67013;BME280;53926;47.406;19.188;2022-12-10T01:50:19;98823.78;;;5.27;100.00
67013;BME280;53926;47.406;19.188;2022-12-10T01:52:47;98821.38;;;5.25;100.00
67013;BME280;53926;47.406;19.188;2022-12-10T01:58:13;98825.75;;;5.31;100.00
67013;BME280;53926;47.406;19.188;2022-12-10T02:00:46;98842.22;;;5.30;100.00
67013;BME280;53926;47.406;19.188;2022-12-10T02:03:21;98848.56;;;5.28;100.00
67013;BME280;53926;47.406;19.188;2022-12-10T02:09:25;98846.81;;;5.22;100.00
67013;BME280;53926;47.406;19.188;2022-12-10T02:17:45;98843.69;;;5.19;100.00
67013;BME280;53926;47.406;19.188;2022-12-10T02:20:21;98843.59;;;5.33;100.00
67013;BME280;53926;47.406;19.188;2022-12-10T02:22:53;98851.16;;;5.28;100.00
67013;BME280;53926;47.406;19.188;2022-12-10T02:25:26;98855.13;;;5.30;100.00
67013;BME280;53926;47.406;19.188;2022-12-10T02:28:17;98842.59;;;5.34;100.00
67013;BME280;53926;47.406;19.188;2022-12-10T02:30:48;98851.50;;;5.38;100.00
67013;BME280;53926;47.406;19.188;2022-12-10T02:33:17;98856.25;;;5.41;100.00
67013;BME280;53926;47.406;19.188;2022-12-10T02:35:47;98855.25;;;5.42;100.00
67013;BME280;53926;47.406;19.188;2022-12-10T02:38:36;98850.09;;;5.42;100.00
67013;BME280;53926;47.406;19.188;2022-12-10T02:41:21;98855.41;;;5.47;100.00
67013;BME280;53926;47.406;19.188;2022-12-10T02:43:51;98858.97;;;5.46;100.00
67013;BME280;53926;47.406;19.188;2022-12-10T02:46:19;98846.28;;;5.45;100.00
67013;BME280;53926;47.406;19.188;2022-12-10T02:48:47;98847.94;;;5.32;100.00
67013;BME280;53926;47.406;19.188;2022-12-10T02:51:15;98850.16;;;5.29;100.00
67013;BME280;53926;47.406;19.188;2022-12-10T02:53:43;98849.81;;;5.18;100.00
67013;BME280;53926;47.406;19.188;2022-12-10T02:59:16;98863.28;;;5.27;100.00
67013;BME280;53926;47.406;19.188;2022-12-10T03:02:09;98865.59;;;5.35;100.00
67013;BME280;53926;47.406;19.188;2022-12-10T03:05:01;98850.31;;;5.41;100.00
67013;BME280;53926;47.406;19.188;2022-12-10T03:07:36;98851.56;;;5.25;100.00
67013;BME280;53926;47.406;19.188;2022-12-10T03:10:12;98853.59;;;5.23;100.00
67013;BME280;53926;47.406;19.188;2022-12-10T03:12:47;98837.63;;;5.32;100.00
67013;BME280;53926;47.406;19.188;2022-12-10T03:15:16;98864.28;;;5.26;100.00
67013;BME280;53926;47.406;19.188;2022-12-10T03:17:45;98869.81;;;5.30;100.00
67013;BME280;53926;47.406;19.188;2022-12-10T03:20:15;98875.56;;;5.32;100.00
67013;BME280;53926;47.406;19.188;2022-12-10T03:22:44;98891.19;;;5.44;100.00
67013;BME280;53926;47.406;19.188;2022-12-10T03:25:17;98892.38;;;5.41;100.00
67013;BME280;53926;47.406;19.188;2022-12-10T03:27:47;98881.37;;;5.20;100.00
67013;BME280;53926;47.406;19.188;2022-12-10T03:30:16;98879.56;;;5.28;100.00
67013;BME280;53926;47.406;19.188;2022-12-10T03:32:43;98875.34;;;5.33;100.00
67013;BME280;53926;47.406;19.188;2022-12-10T03:35:12;98885.63;;;5.40;100.00
67013;BME280;53926;47.406;19.188;2022-12-10T03:37:40;98891.75;;;5.46;100.00
67013;BME280;53926;47.406;19.188;2022-12-10T03:40:08;98882.63;;;5.43;100.00
67013;BME280;53926;47.406;19.188;2022-12-10T03:42:37;98880.56;;;5.27;100.00
67013;BME280;53926;47.406;19.188;2022-12-10T03:45:04;98873.19;;;5.30;100.00
67013;BME280;53926;47.406;19.188;2022-12-10T03:47:31;98873.94;;;5.37;100.00
67013;BME280;53926;47.406;19.188;2022-12-10T03:49:58;98889.38;;;5.44;100.00
67013;BME280;53926;47.406;19.188;2022-12-10T03:52:25;98892.97;;;5.43;100.00
67013;BME280;53926;47.406;19.188;2022-12-10T03:54:51;98895.94;;;5.47;100.00
67013;BME280;53926;47.406;19.188;2022-12-10T03:57:18;98907.41;;;5.51;100.00
67013;BME280;53926;47.406;19.188;2022-12-10T03:59:45;98908.22;;;5.51;100.00
67013;BME280;53926;47.406;19.188;2022-12-10T04:02:11;98908.53;;;5.30;100.00
67013;BME280;53926;47.406;19.188;2022-12-10T04:04:38;98898.81;;;5.25;100.00
67013;BME280;53926;47.406;19.188;2022-12-10T04:07:04;98887.34;;;5.21;100.00
67013;BME280;53926;47.406;19.188;2022-12-10T04:09:31;98894.47;;;5.26;100.00
67013;BME280;53926;47.406;19.188;2022-12-10T04:11:58;98889.72;;;5.23;100.00
67013;BME280;53926;47.406;19.188;2022-12-10T04:14:25;98895.03;;;5.28;100.00
67013;BME280;53926;47.406;19.188;2022-12-10T04:17:11;98898.63;;;5.27;100.00
67013;BME280;53926;47.406;19.188;2022-12-10T04:19:38;98896.41;;;5.30;100.00
67013;BME280;53926;47.406;19.188;2022-12-10T04:22:05;98901.59;;;5.30;100.00
67013;BME280;53926;47.406;19.188;2022-12-10T04:24:50;98909.53;;;5.29;100.00
67013;BME280;53926;47.406;19.188;2022-12-10T04:27:38;98911.13;;;5.30;100.00
67013;BME280;53926;47.406;19.188;2022-12-10T04:30:07;98902.78;;;5.28;100.00
67013;BME280;53926;47.406;19.188;2022-12-10T04:32:35;98902.78;;;5.28;100.00
67013;BME280;53926;47.406;19.188;2022-12-10T04:35:02;98905.00;;;5.17;100.00
67013;BME280;53926;47.406;19.188;2022-12-10T04:37:29;98907.16;;;5.20;100.00
67013;BME280;53926;47.406;19.188;2022-12-10T04:39:55;98910.00;;;5.12;100.00
67013;BME280;53926;47.406;19.188;2022-12-10T04:42:22;98924.50;;;5.07;100.00
67013;BME280;53926;47.406;19.188;2022-12-10T04:44:49;98914.59;;;5.10;100.00
67013;BME280;53926;47.406;19.188;2022-12-10T04:47:16;98919.75;;;5.10;100.00
67013;BME280;53926;47.406;19.188;2022-12-10T04:49:42;98917.22;;;4.97;100.00
67013;BME280;53926;47.406;19.188;2022-12-10T04:52:12;98920.63;;;4.84;100.00
67013;BME280;53926;47.406;19.188;2022-12-10T04:54:39;98910.34;;;4.71;100.00
67013;BME280;53926;47.406;19.188;2022-12-10T04:57:06;98920.50;;;4.65;100.00
67013;BME280;53926;47.406;19.188;2022-12-10T04:59:35;98914.31;;;4.66;100.00
67013;BME280;53926;47.406;19.188;2022-12-10T05:02:04;98915.34;;;4.65;100.00
67013;BME280;53926;47.406;19.188;2022-12-10T05:04:31;98932.38;;;4.66;100.00
67013;BME280;53926;47.406;19.188;2022-12-10T05:06:57;98932.00;;;4.63;100.00
67013;BME280;53926;47.406;19.188;2022-12-10T05:09:24;98937.56;;;4.60;100.00
67013;BME280;53926;47.406;19.188;2022-12-10T05:11:50;98935.75;;;4.60;100.00
67013;BME280;53926;47.406;19.188;2022-12-10T05:14:17;98928.44;;;4.64;100.00
67013;BME280;53926;47.406;19.188;2022-12-10T05:16:44;98932.16;;;4.68;100.00
67013;BME280;53926;47.406;19.188;2022-12-10T05:19:11;98944.06;;;4.69;100.00
67013;BME280;53926;47.406;19.188;2022-12-10T05:21:38;98949.63;;;4.66;100.00
67013;BME280;53926;47.406;19.188;2022-12-10T05:24:24;98945.69;;;4.70;100.00
67013;BME280;53926;47.406;19.188;2022-12-10T05:26:51;98952.59;;;4.70;100.00
67013;BME280;53926;47.406;19.188;2022-12-10T05:29:18;98956.56;;;4.72;100.00
67013;BME280;53926;47.406;19.188;2022-12-10T05:31:45;98962.91;;;4.76;100.00
67013;BME280;53926;47.406;19.188;2022-12-10T05:34:12;98968.06;;;4.83;100.00
67013;BME280;53926;47.406;19.188;2022-12-10T05:36:39;98964.31;;;4.65;100.00
67013;BME280;53926;47.406;19.188;2022-12-10T05:39:06;98963.13;;;4.75;100.00
67013;BME280;53926;47.406;19.188;2022-12-10T05:41:37;98975.41;;;4.73;100.00
67013;BME280;53926;47.406;19.188;2022-12-10T05:44:05;98969.44;;;4.79;100.00
67013;BME280;53926;47.406;19.188;2022-12-10T05:46:33;98960.91;;;4.78;100.00
67013;BME280;53926;47.406;19.188;2022-12-10T05:49:03;98959.13;;;4.79;100.00
67013;BME280;53926;47.406;19.188;2022-12-10T05:51:31;98954.78;;;4.79;100.00
67013;BME280;53926;47.406;19.188;2022-12-10T05:54:00;98958.34;;;4.78;100.00
67013;BME280;53926;47.406;19.188;2022-12-10T05:56:28;98964.50;;;4.71;100.00
67013;BME280;53926;47.406;19.188;2022-12-10T05:58:58;98966.69;;;4.74;100.00
67013;BME280;53926;47.406;19.188;2022-12-10T06:01:29;98969.47;;;4.72;100.00
67013;BME280;53926;47.406;19.188;2022-12-10T06:03:58;98974.38;;;4.80;100.00
67013;BME280;53926;47.406;19.188;2022-12-10T06:06:28;98970.66;;;4.76;100.00
67013;BME280;53926;47.406;19.188;2022-12-10T06:08:55;98963.53;;;4.72;100.00
67013;BME280;53926;47.406;19.188;2022-12-10T06:11:23;98974.81;;;4.71;100.00
67013;BME280;53926;47.406;19.188;2022-12-10T06:13:50;98969.47;;;4.72;100.00
67013;BME280;53926;47.406;19.188;2022-12-10T06:16:21;98975.66;;;4.58;100.00
67013;BME280;53926;47.406;19.188;2022-12-10T06:18:48;98980.19;;;4.62;100.00
67013;BME280;53926;47.406;19.188;2022-12-10T06:21:19;98986.72;;;4.72;100.00
67013;BME280;53926;47.406;19.188;2022-12-10T06:23:47;98991.28;;;4.63;100.00
67013;BME280;53926;47.406;19.188;2022-12-10T06:26:16;98980.78;;;4.64;100.00
67013;BME280;53926;47.406;19.188;2022-12-10T06:28:46;98989.53;;;4.57;100.00
67013;BME280;53926;47.406;19.188;2022-12-10T06:31:14;98985.94;;;4.51;100.00
67013;BME280;53926;47.406;19.188;2022-12-10T06:33:41;98977.25;;;4.45;100.00
67013;BME280;53926;47.406;19.188;2022-12-10T06:36:10;98987.34;;;4.40;100.00
67013;BME280;53926;47.406;19.188;2022-12-10T06:38:37;98978.63;;;4.35;100.00
67013;BME280;53926;47.406;19.188;2022-12-10T06:41:06;98986.75;;;4.45;100.00
67013;BME280;53926;47.406;19.188;2022-12-10T06:43:33;98999.03;;;4.50;100.00
67013;BME280;53926;47.406;19.188;2022-12-10T06:46:04;99005.38;;;4.40;100.00
67013;BME280;53926;47.406;19.188;2022-12-10T06:48:31;98994.87;;;4.35;100.00
67013;BME280;53926;47.406;19.188;2022-12-10T06:50:58;98999.25;;;4.35;100.00
67013;BME280;53926;47.406;19.188;2022-12-10T06:53:26;98997.84;;;4.32;100.00
67013;BME280;53926;47.406;19.188;2022-12-10T06:55:53;99013.72;;;4.36;100.00
67013;BME280;53926;47.406;19.188;2022-12-10T06:58:19;99018.50;;;4.45;100.00
67013;BME280;53926;47.406;19.188;2022-12-10T07:00:46;99008.19;;;4.25;100.00
67013;BME280;53926;47.406;19.188;2022-12-10T07:03:12;99014.31;;;4.38;100.00
67013;BME280;53926;47.406;19.188;2022-12-10T07:05:39;99012.13;;;4.48;100.00
67013;BME280;53926;47.406;19.188;2022-12-10T07:08:05;99002.22;;;4.38;100.00
67013;BME280;53926;47.406;19.188;2022-12-10T07:10:32;98992.91;;;4.51;100.00
67013;BME280;53926;47.406;19.188;2022-12-10T07:12:59;98989.34;;;4.52;100.00
67013;BME280;53926;47.406;19.188;2022-12-10T07:15:26;98990.31;;;4.51;100.00
67013;BME280;53926;47.406;19.188;2022-12-10T07:17:54;98996.66;;;4.48;100.00
67013;BME280;53926;47.406;19.188;2022-12-10T07:20:21;99004.41;;;4.55;100.00
67013;BME280;53926;47.406;19.188;2022-12-10T07:22:47;99000.84;;;4.49;100.00
67013;BME280;53926;47.406;19.188;2022-12-10T07:25:14;99007.94;;;4.60;100.00
67013;BME280;53926;47.406;19.188;2022-12-10T07:27:40;98998.84;;;4.51;100.00
67013;BME280;53926;47.406;19.188;2022-12-10T07:30:08;98984.97;;;4.52;100.00
67013;BME280;53926;47.406;19.188;2022-12-10T07:32:35;98978.81;;;4.53;100.00
67013;BME280;53926;47.406;19.188;2022-12-10T07:35:01;98971.06;;;4.60;100.00
67013;BME280;53926;47.406;19.188;2022-12-10T07:37:28;98968.69;;;4.72;100.00
67013;BME280;53926;47.406;19.188;2022-12-10T07:39:54;98966.88;;;4.72;100.00
67013;BME280;53926;47.406;19.188;2022-12-10T07:42:21;98975.38;;;4.86;100.00
67013;BME280;53926;47.406;19.188;2022-12-10T07:44:48;98974.59;;;4.86;100.00
67013;BME280;53926;47.406;19.188;2022-12-10T07:47:15;98974.25;;;4.69;100.00
67013;BME280;53926;47.406;19.188;2022-12-10T07:49:42;98977.38;;;4.77;100.00
67013;BME280;53926;47.406;19.188;2022-12-10T07:52:08;98996.44;;;4.70;100.00
67013;BME280;53926;47.406;19.188;2022-12-10T07:54:35;98991.91;;;4.45;100.00
67013;BME280;53926;47.406;19.188;2022-12-10T07:57:02;99010.34;;;4.69;100.00
67013;BME280;53926;47.406;19.188;2022-12-10T07:59:28;99012.13;;;4.61;100.00
67013;BME280;53926;47.406;19.188;2022-12-10T08:01:56;99031.97;;;4.41;100.00
67013;BME280;53926;47.406;19.188;2022-12-10T08:04:33;99032.75;;;4.55;100.00
67013;BME280;53926;47.406;19.188;2022-12-10T08:07:00;99027.78;;;4.60;100.00
67013;BME280;53926;47.406;19.188;2022-12-10T08:09:26;99012.53;;;4.58;100.00
67013;BME280;53926;47.406;19.188;2022-12-10T08:11:53;99013.91;;;4.34;100.00
67013;BME280;53926;47.406;19.188;2022-12-10T08:14:19;99011.94;;;4.36;100.00
67013;BME280;53926;47.406;19.188;2022-12-10T08:16:46;99003.37;;;4.56;100.00
67013;BME280;53926;47.406;19.188;2022-12-10T08:19:13;98998.62;;;4.53;100.00
67013;BME280;53926;47.406;19.188;2022-12-10T08:21:46;99002.56;;;4.82;100.00
67013;BME280;53926;47.406;19.188;2022-12-10T08:24:13;99008.72;;;4.88;100.00
67013;BME280;53926;47.406;19.188;2022-12-10T08:26:39;99004.38;;;4.75;100.00
67013;BME280;53926;47.406;19.188;2022-12-10T08:29:06;98985.69;;;4.86;100.00
67013;BME280;53926;47.406;19.188;2022-12-10T08:31:33;98979.28;;;5.02;100.00
67013;BME280;53926;47.406;19.188;2022-12-10T08:34:04;98979.53;;;4.94;100.00
67013;BME280;53926;47.406;19.188;2022-12-10T08:36:31;98990.47;;;4.82;100.00
67013;BME280;53926;47.406;19.188;2022-12-10T08:38:57;98983.94;;;4.66;100.00
67013;BME280;53926;47.406;19.188;2022-12-10T08:41:24;98988.91;;;4.68;100.00
67013;BME280;53926;47.406;19.188;2022-12-10T08:43:51;98996.56;;;5.01;100.00
67013;BME280;53926;47.406;19.188;2022-12-10T08:46:18;98984.91;;;4.86;100.00
67013;BME280;53926;47.406;19.188;2022-12-10T08:48:45;98988.81;;;5.08;100.00
67013;BME280;53926;47.406;19.188;2022-12-10T08:51:15;99012.09;;;4.81;100.00
67013;BME280;53926;47.406;19.188;2022-12-10T08:53:42;99014.88;;;4.80;100.00
67013;BME280;53926;47.406;19.188;2022-12-10T08:56:08;99012.47;;;4.98;100.00
67013;BME280;53926;47.406;19.188;2022-12-10T08:58:36;99002.53;;;4.95;100.00
67013;BME280;53926;47.406;19.188;2022-12-10T09:01:15;99013.09;;;4.87;100.00
67013;BME280;53926;47.406;19.188;2022-12-10T09:03:43;99012.88;;;4.95;100.00
67013;BME280;53926;47.406;19.188;2022-12-10T09:06:15;99016.44;;;4.94;100.00
67013;BME280;53926;47.406;19.188;2022-12-10T09:08:42;99017.00;;;5.03;100.00
67013;BME280;53926;47.406;19.188;2022-12-10T09:13:37;99032.31;;;4.98;100.00
67013;BME280;53926;47.406;19.188;2022-12-10T09:16:04;99034.59;;;5.26;100.00
67013;BME280;53926;47.406;19.188;2022-12-10T09:18:31;99033.44;;;5.15;100.00
67013;BME280;53926;47.406;19.188;2022-12-10T09:20:58;99031.09;;;5.07;100.00
67013;BME280;53926;47.406;19.188;2022-12-10T09:23:24;99032.97;;;5.38;100.00
67013;BME280;53926;47.406;19.188;2022-12-10T09:25:51;99038.63;;;5.02;100.00
67013;BME280;53926;47.406;19.188;2022-12-10T09:28:18;99016.97;;;5.16;100.00
67013;BME280;53926;47.406;19.188;2022-12-10T09:30:44;99014.19;;;5.11;100.00
67013;BME280;53926;47.406;19.188;2022-12-10T09:33:11;99000.66;;;5.29;100.00
67013;BME280;53926;47.406;19.188;2022-12-10T09:35:41;98995.47;;;5.29;100.00
67013;BME280;53926;47.406;19.188;2022-12-10T09:38:08;98997.66;;;5.78;100.00
67013;BME280;53926;47.406;19.188;2022-12-10T09:40:43;98995.47;;;5.75;100.00
67013;BME280;53926;47.406;19.188;2022-12-10T09:46:40;99000.66;;;5.68;100.00
67013;BME280;53926;47.406;19.188;2022-12-10T09:51:46;98990.91;;;5.77;100.00
67013;BME280;53926;47.406;19.188;2022-12-10T09:54:21;98985.16;;;5.68;100.00
67013;BME280;53926;47.406;19.188;2022-12-10T09:56:51;98981.63;;;5.94;100.00
67013;BME280;53926;47.406;19.188;2022-12-10T09:59:23;98982.56;;;5.75;100.00
67013;BME280;53926;47.406;19.188;2022-12-10T10:02:04;98970.19;;;5.51;100.00
67013;BME280;53926;47.406;19.188;2022-12-10T10:04:43;98972.56;;;5.53;100.00
67013;BME280;53926;47.406;19.188;2022-12-10T10:07:19;98975.25;;;5.33;100.00
67013;BME280;53926;47.406;19.188;2022-12-10T10:09:47;98959.97;;;5.31;100.00
67013;BME280;53926;47.406;19.188;2022-12-10T10:12:15;98960.75;;;5.25;100.00
67013;BME280;53926;47.406;19.188;2022-12-10T10:14:43;98972.28;;;5.23;100.00
67013;BME280;53926;47.406;19.188;2022-12-10T10:17:21;98970.50;;;5.62;100.00
67013;BME280;53926;47.406;19.188;2022-12-10T10:19:58;98976.34;;;5.50;100.00
67013;BME280;53926;47.406;19.188;2022-12-10T10:22:24;98970.41;;;5.50;100.00
67013;BME280;53926;47.406;19.188;2022-12-10T10:24:53;98966.38;;;5.54;100.00
67013;BME280;53926;47.406;19.188;2022-12-10T10:27:22;98965.66;;;5.40;100.00
67013;BME280;53926;47.406;19.188;2022-12-10T10:29:55;98964.25;;;5.44;100.00
67013;BME280;53926;47.406;19.188;2022-12-10T10:35:03;98968.09;;;5.28;100.00
67013;BME280;53926;47.406;19.188;2022-12-10T10:37:40;98963.78;;;5.15;100.00
67013;BME280;53926;47.406;19.188;2022-12-10T10:40:22;98969.16;;;5.14;100.00
67013;BME280;53926;47.406;19.188;2022-12-10T10:42:53;98962.66;;;5.43;100.00
67013;BME280;53926;47.406;19.188;2022-12-10T10:48:26;98958.66;;;5.02;100.00
67013;BME280;53926;47.406;19.188;2022-12-10T10:51:20;98959.63;;;5.08;100.00
67013;BME280;53926;47.406;19.188;2022-12-10T10:56:25;98964.00;;;5.07;100.00
67013;BME280;53926;47.406;19.188;2022-12-10T10:59:07;98960.41;;;5.08;100.00
67013;BME280;53926;47.406;19.188;2022-12-10T11:01:51;98961.28;;;4.95;100.00
67013;BME280;53926;47.406;19.188;2022-12-10T11:06:51;98944.16;;;5.08;100.00
67013;BME280;53926;47.406;19.188;2022-12-10T11:09:28;98938.47;;;4.92;100.00
67013;BME280;53926;47.406;19.188;2022-12-10T11:12:05;98935.34;;;4.70;100.00
67013;BME280;53926;47.406;19.188;2022-12-10T11:14:39;98926.91;;;5.01;100.00
67013;BME280;53926;47.406;19.188;2022-12-10T11:19:54;98929.94;;;4.92;100.00
67013;BME280;53926;47.406;19.188;2022-12-10T11:22:30;98926.91;;;5.01;100.00
67013;BME280;53926;47.406;19.188;2022-12-10T11:24:57;98932.09;;;4.95;100.00
67013;BME280;53926;47.406;19.188;2022-12-10T11:30:09;98928.75;;;4.88;100.00
67013;BME280;53926;47.406;19.188;2022-12-10T11:41:05;98897.50;;;4.64;100.00
67013;BME280;53926;47.406;19.188;2022-12-10T11:51:40;98892.12;;;4.59;100.00
67013;BME280;53926;47.406;19.188;2022-12-10T11:54:27;98882.22;;;4.56;100.00
67013;BME280;53926;47.406;19.188;2022-12-10T12:11:10;98853.47;;;4.59;100.00
67013;BME280;53926;47.406;19.188;2022-12-10T12:13:57;98851.00;;;4.77;100.00
67013;BME280;53926;47.406;19.188;2022-12-10T12:16:37;98844.91;;;4.72;100.00
67013;BME280;53926;47.406;19.188;2022-12-10T12:19:31;98839.41;;;4.55;100.00
67013;BME280;53926;47.406;19.188;2022-12-10T12:22:07;98837.28;;;4.38;100.00
67013;BME280;53926;47.406;19.188;2022-12-10T12:24:40;98844.59;;;4.41;100.00
67013;BME280;53926;47.406;19.188;2022-12-10T12:27:15;98852.34;;;4.41;100.00
67013;BME280;53926;47.406;19.188;2022-12-10T12:30:02;98841.59;;;4.51;100.00
67013;BME280;53926;47.406;19.188;2022-12-10T12:32:45;98841.19;;;4.54;100.00
67013;BME280;53926;47.406;19.188;2022-12-10T12:35:18;98836.84;;;4.55;100.00
67013;BME280;53926;47.406;19.188;2022-12-10T12:37:54;98840.63;;;4.39;100.00
67013;BME280;53926;47.406;19.188;2022-12-10T12:40:30;98837.09;;;4.33;100.00
67013;BME280;53926;47.406;19.188;2022-12-10T12:43:01;98838.06;;;4.39;100.00
67013;BME280;53926;47.406;19.188;2022-12-10T12:53:09;98831.16;;;4.26;100.00
67013;BME280;53926;47.406;19.188;2022-12-10T12:55:49;98835.16;;;4.15;100.00
67013;BME280;53926;47.406;19.188;2022-12-10T13:00:54;98843.25;;;4.32;100.00
67013;BME280;53926;47.406;19.188;2022-12-10T13:03:35;98848.63;;;4.24;100.00
67013;BME280;53926;47.406;19.188;2022-12-10T13:06:33;98853.56;;;4.19;100.00
67013;BME280;53926;47.406;19.188;2022-12-10T13:14:34;98847.66;;;4.11;100.00
67013;BME280;53926;47.406;19.188;2022-12-10T13:17:09;98846.44;;;4.21;100.00
67013;BME280;53926;47.406;19.188;2022-12-10T13:19:50;98854.97;;;4.15;100.00
67013;BME280;53926;47.406;19.188;2022-12-10T13:25:14;98863.53;;;3.88;100.00
67013;BME280;53926;47.406;19.188;2022-12-10T13:27:54;98867.50;;;3.98;100.00
67013;BME280;53926;47.406;19.188;2022-12-10T13:30:33;98850.25;;;3.98;100.00
67013;BME280;53926;47.406;19.188;2022-12-10T13:33:14;98855.56;;;4.03;100.00
67013;BME280;53926;47.406;19.188;2022-12-10T13:35:49;98860.94;;;4.08;100.00
67013;BME280;53926;47.406;19.188;2022-12-10T13:38:22;98850.25;;;3.98;100.00
67013;BME280;53926;47.406;19.188;2022-12-10T13:41:01;98848.84;;;3.96;100.00
67013;BME280;53926;47.406;19.188;2022-12-10T13:43:55;98847.88;;;3.90;100.00
67013;BME280;53926;47.406;19.188;2022-12-10T13:46:56;98850.44;;;3.90;100.00
67013;BME280;53926;47.406;19.188;2022-12-10T13:49:28;98849.03;;;3.94;100.00
67013;BME280;53926;47.406;19.188;2022-12-10T13:52:07;98843.13;;;3.93;100.00
67013;BME280;53926;47.406;19.188;2022-12-10T13:54:59;98841.72;;;3.91;100.00
67013;BME280;53926;47.406;19.188;2022-12-10T14:08:16;98820.34;;;3.84;100.00
67013;BME280;53926;47.406;19.188;2022-12-10T14:10:45;98824.69;;;3.90;100.00
67013;BME280;53926;47.406;19.188;2022-12-10T14:13:15;98820.75;;;3.81;100.00
67013;BME280;53926;47.406;19.188;2022-12-10T14:15:54;98818.38;;;3.79;100.00
67013;BME280;53926;47.406;19.188;2022-12-10T14:18:22;98817.75;;;3.77;100.00
67013;BME280;53926;47.406;19.188;2022-12-10T14:20:52;98817.19;;;3.75;100.00
67013;BME280;53926;47.406;19.188;2022-12-10T14:23:28;98828.28;;;3.62;100.00
67013;BME280;53926;47.406;19.188;2022-12-10T14:26:18;98828.88;;;3.64;100.00
67013;BME280;53926;47.406;19.188;2022-12-10T14:28:48;98819.16;;;3.66;100.00
67013;BME280;53926;47.406;19.188;2022-12-10T14:31:30;98812.81;;;3.55;100.00
67013;BME280;53926;47.406;19.188;2022-12-10T14:34:05;98819.78;;;3.68;100.00
67013;BME280;53926;47.406;19.188;2022-12-10T14:36:45;98821.72;;;3.66;100.00
67013;BME280;53926;47.406;19.188;2022-12-10T14:39:17;98826.50;;;3.56;100.00
67013;BME280;53926;47.406;19.188;2022-12-10T14:41:47;98830.44;;;3.58;100.00
67013;BME280;53926;47.406;19.188;2022-12-10T14:44:16;98831.84;;;3.54;100.00
67013;BME280;53926;47.406;19.188;2022-12-10T14:46:47;98829.47;;;3.53;100.00
67013;BME280;53926;47.406;19.188;2022-12-10T14:49:23;98818.16;;;3.47;100.00
67013;BME280;53926;47.406;19.188;2022-12-10T14:51:50;98825.50;;;3.44;100.00
67013;BME280;53926;47.406;19.188;2022-12-10T14:54:29;98820.53;;;3.35;100.00